Time;durP1;ratioP1;P1;durP2;ratioP2;P2;SDS_P1;SDS_P2;PMS_P1;PMS_P2;Temp;Humidity;BMP_temperature;BMP_pressure;BME280_temperature;BME280_humidity;BME280_pressure;Samples;Min_cycle;Max_cycle;Signal;HPM_P1;HPM_P2
2024/04/20 00:02:27;;;;;;;;;;;;;;;22.59;45.72;93824.69;5415420;26;9162;-57
2024/04/20 00:04:53;;;;;;;;;;;;;;;22.60;46.31;93820.69;5446966;26;9564;-57
2024/04/20 00:07:19;;;;;;;;;;;;;;;22.61;45.76;93830.41;5398591;26;7028;-57
2024/04/20 00:09:46;;;;;;;;;;;;;;;22.61;45.94;93821.44;5426229;26;9550;-57
2024/04/20 00:12:15;;;;;;;;;;;;;;;22.61;45.55;93813.97;5429645;26;8561;-57
2024/04/20 00:14:41;;;;;;;;;;;;;;;22.61;46.17;93816.72;5385983;26;9914;-57
2024/04/20 00:17:07;;;;;;;;;;;;;;;22.61;45.52;93807.75;5380053;26;9493;-57
2024/04/20 00:19:35;;;;;;;;;;;;;;;22.62;45.78;93825.69;5453469;26;9578;-57
2024/04/20 00:22:03;;;;;;;;;;;;;;;22.60;45.73;93811.75;5445583;26;8604;-57
2024/04/20 00:24:30;;;;;;;;;;;;;;;22.62;45.66;93807.22;5416526;26;9699;-58
2024/04/20 00:26:58;;;;;;;;;;;;;;;22.60;45.37;93801.50;5411867;26;8889;-59
2024/04/20 00:29:24;;;;;;;;;;;;;;;22.60;45.73;93809.00;5415516;26;9060;-58
2024/04/20 00:31:50;;;;;;;;;;;;;;;22.61;45.92;93813.22;5409206;26;8556;-59
2024/04/20 00:34:16;;;;;;;;;;;;;;;22.60;45.31;93807.00;5428585;26;8715;-58
2024/04/20 00:36:46;;;;;;;;;;;;;;;22.63;45.94;93811.47;5444535;26;9009;-59
2024/04/20 00:39:12;;;;;;;;;;;;;;;22.63;45.22;93813.47;5445334;26;9121;-59
2024/04/20 00:41:38;;;;;;;;;;;;;;;22.63;45.43;93808.72;5438131;26;9610;-59
2024/04/20 00:44:04;;;;;;;;;;;;;;;22.65;45.55;93816.44;5423555;26;9436;-58
2024/04/20 00:46:33;;;;;;;;;;;;;;;22.61;45.92;93803.00;5413381;26;8718;-59
2024/04/20 00:49:01;;;;;;;;;;;;;;;22.60;45.76;93809.72;5399513;26;8708;-59
2024/04/20 00:51:28;;;;;;;;;;;;;;;22.54;45.55;93806.25;5406667;26;9492;-59
2024/04/20 00:53:58;;;;;;;;;;;;;;;22.63;45.74;93811.47;5437656;26;8631;-59
2024/04/20 00:56:27;;;;;;;;;;;;;;;22.60;45.66;93807.00;5413336;26;8833;-58
2024/04/20 00:58:53;;;;;;;;;;;;;;;22.61;45.92;93811.22;5459894;26;9033;-58
2024/04/20 01:01:26;;;;;;;;;;;;;;;22.59;45.67;93816.47;5413770;26;7367;-58
2024/04/20 01:03:55;;;;;;;;;;;;;;;22.62;45.80;93833.91;5436568;26;9107;-58
2024/04/20 01:06:21;;;;;;;;;;;;;;;22.61;45.51;93838.63;5400438;26;6897;-58
2024/04/20 01:08:48;;;;;;;;;;;;;;;22.58;45.19;93847.06;5414288;26;9215;-59
2024/04/20 01:11:16;;;;;;;;;;;;;;;22.58;46.07;93847.06;5443190;26;9017;-59
2024/04/20 01:13:52;;;;;;;;;;;;;;;22.61;45.66;93840.63;5412709;26;9073;-59
2024/04/20 01:16:19;;;;;;;;;;;;;;;22.55;45.58;93829.66;5403862;26;8609;-59
2024/04/20 01:18:45;;;;;;;;;;;;;;;22.57;45.68;93834.63;5412155;26;8752;-58
2024/04/20 01:21:13;;;;;;;;;;;;;;;22.56;45.69;93844.84;5410764;26;8194;-58
2024/04/20 01:23:39;;;;;;;;;;;;;;;22.55;45.56;93851.59;5438789;26;9277;-58
2024/04/20 01:26:06;;;;;;;;;;;;;;;22.55;46.01;93839.88;5420473;26;7023;-58
2024/04/20 01:28:34;;;;;;;;;;;;;;;22.52;46.06;93845.13;5414354;26;8634;-58
2024/04/20 01:31:02;;;;;;;;;;;;;;;22.49;46.10;93851.59;5409460;26;8606;-58
2024/04/20 01:33:28;;;;;;;;;;;;;;;22.52;45.96;93842.38;5415601;26;9126;-58
2024/04/20 01:36:05;;;;;;;;;;;;;;;22.50;45.73;93846.88;5418705;26;8988;-59
2024/04/20 01:38:31;;;;;;;;;;;;;;;22.49;45.81;93846.13;5388129;26;9265;-59
2024/04/20 01:40:58;;;;;;;;;;;;;;;22.51;45.98;93859.31;5418140;26;9810;-59
2024/04/20 01:43:26;;;;;;;;;;;;;;;22.53;45.61;93862.31;5442108;26;7235;-59
2024/04/20 01:45:52;;;;;;;;;;;;;;;22.53;45.94;93865.06;5414498;26;7012;-59
2024/04/20 01:48:19;;;;;;;;;;;;;;;22.52;45.81;93866.28;5414048;26;9524;-59
2024/04/20 01:50:46;;;;;;;;;;;;;;;22.51;45.88;93862.03;5437920;26;9054;-59
2024/04/20 01:53:31;;;;;;;;;;;;;;;22.50;45.46;93863.31;5410346;26;9373;-59
2024/04/20 01:56:08;;;;;;;;;;;;;;;22.48;45.83;93866.56;5443514;26;9065;-59
2024/04/20 01:58:35;;;;;;;;;;;;;;;22.50;45.55;93871.53;5381313;26;9341;-59
2024/04/20 02:01:04;;;;;;;;;;;;;;;22.50;45.64;93869.53;5460657;26;9416;-59
2024/04/20 02:03:49;;;;;;;;;;;;;;;22.49;45.26;93857.06;5399237;26;9091;-59
2024/04/20 02:06:18;;;;;;;;;;;;;;;22.48;45.56;93872.03;5408481;26;9390;-59
2024/04/20 02:09:02;;;;;;;;;;;;;;;22.49;45.45;93872.75;5390956;26;7620;-59
2024/04/20 02:11:28;;;;;;;;;;;;;;;22.49;45.50;93868.03;5428944;26;7267;-59
2024/04/20 02:14:02;;;;;;;;;;;;;;;22.47;45.18;93889.72;5424483;26;7299;-59
2024/04/20 02:16:36;;;;;;;;;;;;;;;22.42;45.66;93895.22;5447220;26;9051;-59
2024/04/20 02:19:02;;;;;;;;;;;;;;;22.47;45.77;93908.91;5440002;26;9827;-59
2024/04/20 02:21:35;;;;;;;;;;;;;;;22.49;46.18;93913.88;5383184;26;9088;-59
2024/04/20 02:24:01;;;;;;;;;;;;;;;22.49;45.22;93903.66;5408791;26;9447;-59
2024/04/20 02:26:27;;;;;;;;;;;;;;;22.49;45.87;93909.16;5422135;26;9175;-59
2024/04/20 02:29:10;;;;;;;;;;;;;;;22.48;45.91;93906.91;5416930;26;8587;-59
2024/04/20 02:31:41;;;;;;;;;;;;;;;22.43;45.92;93897.47;5416157;26;9470;-59
2024/04/20 02:34:27;;;;;;;;;;;;;;;22.48;45.39;93907.66;5419064;26;9284;-59
2024/04/20 02:37:20;;;;;;;;;;;;;;;22.47;45.49;93908.91;5419648;26;9466;-59
2024/04/20 02:39:52;;;;;;;;;;;;;;;22.45;45.65;93900.44;5430908;26;9874;-59
2024/04/20 02:42:18;;;;;;;;;;;;;;;22.46;45.44;93901.94;5413152;26;9039;-59
2024/04/20 02:44:45;;;;;;;;;;;;;;;22.44;45.84;93898.22;5392695;26;9531;-56
2024/04/20 02:47:24;;;;;;;;;;;;;;;22.45;45.25;93900.44;5419582;26;8609;-56
2024/04/20 02:49:55;;;;;;;;;;;;;;;22.45;45.20;93896.94;5449445;26;8764;-56
2024/04/20 02:52:23;;;;;;;;;;;;;;;22.45;45.79;93894.22;5418939;26;9026;-56
2024/04/20 02:54:53;;;;;;;;;;;;;;;22.46;45.25;93896.47;5458422;26;9408;-56
2024/04/20 02:57:20;;;;;;;;;;;;;;;22.45;46.21;93889.47;5419527;26;9497;-56
2024/04/20 02:59:46;;;;;;;;;;;;;;;22.45;45.83;93885.97;5419638;26;8557;-56
2024/04/20 03:02:14;;;;;;;;;;;;;;;22.47;45.61;93880.75;5413581;26;9521;-56
2024/04/20 03:04:41;;;;;;;;;;;;;;;22.46;45.54;93879.28;5419654;26;9052;-56
2024/04/20 03:07:11;;;;;;;;;;;;;;;22.48;45.35;93882.25;5418121;26;7196;-56
2024/04/20 03:09:37;;;;;;;;;;;;;;;22.48;45.89;93879.50;5416353;26;9031;-56
2024/04/20 03:12:04;;;;;;;;;;;;;;;22.51;45.55;93883.97;5416835;26;9127;-56
2024/04/20 03:14:32;;;;;;;;;;;;;;;22.49;45.22;93884.47;5413423;26;9050;-56
2024/04/20 03:16:58;;;;;;;;;;;;;;;22.50;46.01;93882.50;5440356;26;9081;-56
2024/04/20 03:19:26;;;;;;;;;;;;;;;22.48;45.86;93887.72;5426304;26;8665;-56
2024/04/20 03:22:03;;;;;;;;;;;;;;;22.51;45.76;93887.47;5418775;26;8631;-56
2024/04/20 03:24:32;;;;;;;;;;;;;;;22.48;45.30;93898.69;5446203;26;9169;-56
2024/04/20 03:27:00;;;;;;;;;;;;;;;22.48;45.69;93902.19;5449444;26;9998;-56
2024/04/20 03:29:42;;;;;;;;;;;;;;;22.48;45.67;93902.19;5448823;26;9035;-56
2024/04/20 03:32:43;;;;;;;;;;;;;;;22.48;45.38;93904.16;5412798;26;9141;-56
2024/04/20 03:35:19;;;;;;;;;;;;;;;22.48;45.83;93904.94;5419100;26;7128;-56
2024/04/20 03:37:47;;;;;;;;;;;;;;;22.47;45.62;93905.41;5418692;26;9134;-56
2024/04/20 03:40:18;;;;;;;;;;;;;;;22.47;45.23;93908.91;5447568;26;7381;-56
2024/04/20 03:42:46;;;;;;;;;;;;;;;22.45;45.34;93907.91;5418716;26;9472;-56
2024/04/20 03:45:15;;;;;;;;;;;;;;;22.46;45.73;93918.38;5415563;26;9557;-56
2024/04/20 03:47:44;;;;;;;;;;;;;;;22.47;45.49;93919.88;5415091;26;8896;-56
2024/04/20 03:50:23;;;;;;;;;;;;;;;22.50;45.41;93923.59;5422506;26;8963;-56
2024/04/20 03:52:49;;;;;;;;;;;;;;;22.49;45.43;93913.88;5430993;26;7047;-56
2024/04/20 03:55:21;;;;;;;;;;;;;;;22.46;45.23;93915.66;5416117;26;9089;-60
2024/04/20 03:58:49;;;;;;;;;;;;;;;22.47;45.15;93919.09;5397621;26;9474;-60
2024/04/20 04:01:54;;;;;;;;;;;;;;;22.46;46.01;93928.59;5345326;26;7158;-60
2024/04/20 04:04:32;;;;;;;;;;;;;;;22.43;45.81;93926.84;5345469;26;9549;-60
2024/04/20 04:07:13;;;;;;;;;;;;;;;22.46;45.78;93931.34;5332315;26;9062;-60
2024/04/20 04:09:48;;;;;;;;;;;;;;;22.48;45.58;93934.31;5335168;26;9120;-60
2024/04/20 04:12:16;;;;;;;;;;;;;;;22.49;45.59;93935.78;5372264;26;9903;-60
2024/04/20 04:14:42;;;;;;;;;;;;;;;22.47;45.18;93935.56;5346253;26;7321;-60
2024/04/20 04:17:46;;;;;;;;;;;;;;;22.47;45.15;93946.50;5346678;26;8995;-61
2024/04/20 04:20:40;;;;;;;;;;;;;;;22.47;44.93;93950.00;5218269;27;8986;-60
2024/04/20 04:23:20;;;;;;;;;;;;;;;22.46;45.55;93950.50;5231734;27;9069;-61
2024/04/20 04:26:21;;;;;;;;;;;;;;;22.44;45.61;93959.22;5236017;27;9279;-60
2024/04/20 04:28:56;;;;;;;;;;;;;;;22.43;45.46;93973.44;5248118;27;9106;-60
2024/04/20 04:31:25;;;;;;;;;;;;;;;22.44;45.64;93969.44;5234022;27;7283;-60
2024/04/20 04:34:03;;;;;;;;;;;;;;;22.51;45.69;93977.91;5251744;27;8649;-60
2024/04/20 04:36:39;;;;;;;;;;;;;;;22.53;46.28;93975.41;5283323;27;9480;-60
2024/04/20 04:39:08;;;;;;;;;;;;;;;22.55;45.75;93982.38;5366717;26;9495;-60
2024/04/20 04:41:34;;;;;;;;;;;;;;;22.57;45.21;93982.63;5294541;27;9519;-60
2024/04/20 04:44:00;;;;;;;;;;;;;;;22.59;45.64;93996.59;5293494;26;9678;-60
2024/04/20 04:46:26;;;;;;;;;;;;;;;22.58;45.13;93995.81;5342125;26;9055;-60
2024/04/20 04:48:56;;;;;;;;;;;;;;;22.60;45.82;93998.84;5311531;26;9625;-60
2024/04/20 04:51:55;;;;;;;;;;;;;;;22.61;45.33;93996.84;5289528;27;9478;-60
2024/04/20 04:54:58;;;;;;;;;;;;;;;22.62;45.49;94003.84;5241829;27;9132;-60
2024/04/20 04:57:25;;;;;;;;;;;;;;;22.61;45.53;94000.34;5210018;27;8729;-60
2024/04/20 05:00:01;;;;;;;;;;;;;;;22.65;45.70;94006.31;5233215;27;9126;-60
2024/04/20 05:02:45;;;;;;;;;;;;;;;22.67;45.51;94005.81;5268664;27;9129;-60
2024/04/20 05:05:26;;;;;;;;;;;;;;;22.69;45.06;94011.53;5218095;27;9519;-58
2024/04/20 05:08:30;;;;;;;;;;;;;;;22.67;44.40;94019.53;5234601;27;9089;-59
2024/04/20 05:10:58;;;;;;;;;;;;;;;22.60;44.75;94020.03;5231260;27;8766;-59
2024/04/20 05:13:26;;;;;;;;;;;;;;;22.61;44.62;94022.28;5242737;27;9588;-58
2024/04/20 05:15:53;;;;;;;;;;;;;;;22.59;44.72;94026.72;5210403;27;8605;-59
2024/04/20 05:18:33;;;;;;;;;;;;;;;22.59;45.06;94030.25;5227475;27;9149;-59
2024/04/20 05:21:18;;;;;;;;;;;;;;;22.59;44.63;94040.44;5258725;27;8022;-59
2024/04/20 05:23:56;;;;;;;;;;;;;;;22.57;44.78;94034.72;5231578;27;7243;-59
2024/04/20 05:26:25;;;;;;;;;;;;;;;22.57;45.10;94035.47;5232567;27;9255;-59
2024/04/20 05:29:24;;;;;;;;;;;;;;;22.59;45.13;94046.69;5227666;27;9067;-59
2024/04/20 05:32:28;;;;;;;;;;;;;;;22.61;44.89;94048.94;5218068;27;7624;-59
2024/04/20 05:34:55;;;;;;;;;;;;;;;22.60;45.09;94044.72;5318540;26;9121;-59
2024/04/20 05:37:33;;;;;;;;;;;;;;;22.60;45.59;94053.66;5276083;27;8614;-59
2024/04/20 05:39:59;;;;;;;;;;;;;;;22.62;45.25;94061.41;5276909;27;8639;-59
2024/04/20 05:42:25;;;;;;;;;;;;;;;22.62;45.11;94055.94;5281414;27;9076;-59
2024/04/20 05:44:51;;;;;;;;;;;;;;;22.61;45.82;94071.63;5276208;27;9055;-59
2024/04/20 05:47:18;;;;;;;;;;;;;;;22.62;44.95;94069.63;5292359;26;7182;-59
2024/04/20 05:49:58;;;;;;;;;;;;;;;22.62;45.28;94073.09;5287803;27;8843;-59
2024/04/20 05:52:34;;;;;;;;;;;;;;;22.60;45.17;94069.38;5273480;27;8952;-59
2024/04/20 05:55:10;;;;;;;;;;;;;;;22.62;45.36;94066.88;5275491;27;9788;-59
2024/04/20 05:57:50;;;;;;;;;;;;;;;22.60;45.62;94075.59;5276491;26;7316;-58
2024/04/20 06:00:28;;;;;;;;;;;;;;;22.63;45.34;94079.34;5345682;26;8749;-59
2024/04/20 06:03:07;;;;;;;;;;;;;;;22.62;45.19;94097.03;5339237;26;7346;-59
2024/04/20 06:05:34;;;;;;;;;;;;;;;22.62;45.39;94088.81;5278064;26;9569;-59
2024/04/20 06:08:00;;;;;;;;;;;;;;;22.64;45.56;94092.53;5333062;26;9805;-59
2024/04/20 06:10:55;;;;;;;;;;;;;;;22.64;45.71;94091.81;5432753;26;7021;-61
2024/04/20 06:13:23;;;;;;;;;;;;;;;22.67;45.95;94093.53;5382604;26;8999;-61
2024/04/20 06:15:49;;;;;;;;;;;;;;;22.58;45.74;94077.31;5406394;26;7586;-61
2024/04/20 06:18:25;;;;;;;;;;;;;;;22.73;45.73;94094.31;5443447;26;9385;-61
2024/04/20 06:20:51;;;;;;;;;;;;;;;22.70;46.14;94090.56;5415523;26;9153;-61
2024/04/20 06:23:26;;;;;;;;;;;;;;;22.72;46.04;94093.56;5416136;26;9013;-61
2024/04/20 06:25:59;;;;;;;;;;;;;;;22.74;45.91;94104.00;5416636;26;9491;-61
2024/04/20 06:28:35;;;;;;;;;;;;;;;22.75;45.90;94108.97;5416471;26;9599;-61
2024/04/20 06:31:04;;;;;;;;;;;;;;;22.77;46.04;94117.47;5427180;26;8542;-61
2024/04/20 06:33:58;;;;;;;;;;;;;;;22.80;46.08;94123.94;5445836;26;7231;-60
2024/04/20 06:36:26;;;;;;;;;;;;;;;22.79;45.82;94131.44;5431981;26;9529;-61
2024/04/20 06:38:52;;;;;;;;;;;;;;;22.75;44.29;94130.19;5421901;26;9355;-60
2024/04/20 06:41:18;;;;;;;;;;;;;;;22.70;45.13;94139.91;5423116;26;9006;-60
2024/04/20 06:43:49;;;;;;;;;;;;;;;22.66;45.08;94142.16;5415639;26;9052;-61
2024/04/20 06:46:20;;;;;;;;;;;;;;;22.69;46.04;94146.63;5395549;26;9489;-60
2024/04/20 06:49:18;;;;;;;;;;;;;;;22.70;45.66;94141.91;5410028;26;8632;-60
2024/04/20 06:52:25;;;;;;;;;;;;;;;22.74;46.00;94153.34;5392874;26;10100;-60
2024/04/20 06:54:53;;;;;;;;;;;;;;;22.72;45.81;94153.09;5280968;27;7113;-60
2024/04/20 06:57:29;;;;;;;;;;;;;;;22.73;46.45;94152.59;5285995;27;9087;-60
2024/04/20 06:59:58;;;;;;;;;;;;;;;22.71;46.37;94157.84;5298411;27;9306;-60
2024/04/20 07:02:28;;;;;;;;;;;;;;;22.73;45.87;94165.59;5269978;27;9011;-60
2024/04/20 07:04:59;;;;;;;;;;;;;;;22.73;45.95;94160.81;5271031;27;9071;-60
2024/04/20 07:07:26;;;;;;;;;;;;;;;22.71;45.98;94168.81;5272075;27;7046;-60
2024/04/20 07:10:05;;;;;;;;;;;;;;;22.73;46.37;94166.31;5306689;27;9891;-60
2024/04/20 07:12:34;;;;;;;;;;;;;;;22.74;45.95;94167.06;5283872;26;9809;-60
2024/04/20 07:15:03;;;;;;;;;;;;;;;22.72;46.25;94175.78;5281520;27;8633;-60
2024/04/20 07:17:40;;;;;;;;;;;;;;;22.73;46.13;94165.59;5277659;27;9357;-60
2024/04/20 07:20:33;;;;;;;;;;;;;;;22.72;46.01;94169.56;5299511;27;7551;-62
2024/04/20 07:23:10;;;;;;;;;;;;;;;22.74;47.67;94184.28;5298312;27;7527;-61
2024/04/20 07:26:02;;;;;;;;;;;;;;;22.85;48.58;94181.53;5333477;26;7116;-61
2024/04/20 07:28:29;;;;;;;;;;;;;;;22.90;52.98;94186.25;5414147;26;9025;-61
2024/04/20 07:31:29;;;;;;;;;;;;;;;23.36;55.06;94187.81;5412957;26;7044;-61
2024/04/20 07:33:57;;;;;;;;;;;;;;;23.64;55.91;94186.50;5341538;26;9656;-61
2024/04/20 07:36:27;;;;;;;;;;;;;;;23.88;54.90;94189.44;5312199;26;9511;-61
2024/04/20 07:38:53;;;;;;;;;;;;;;;24.07;55.84;94186.91;5313311;26;8014;-61
2024/04/20 07:41:19;;;;;;;;;;;;;;;24.24;53.19;94195.81;5340961;26;9086;-60
2024/04/20 07:43:46;;;;;;;;;;;;;;;24.36;50.75;94189.00;5313312;26;7102;-59
2024/04/20 07:46:15;;;;;;;;;;;;;;;24.38;47.45;94194.75;5313671;26;9008;-61
2024/04/20 07:48:56;;;;;;;;;;;;;;;24.37;45.51;94196.03;5316685;26;7098;-59
2024/04/20 07:51:35;;;;;;;;;;;;;;;24.29;45.80;94189.56;5343640;26;9657;-58
2024/04/20 07:54:23;;;;;;;;;;;;;;;24.33;43.58;94203.78;5341140;26;7612;-60
2024/04/20 07:56:53;;;;;;;;;;;;;;;24.16;45.26;94199.63;5339225;26;7239;-60
2024/04/20 07:59:50;;;;;;;;;;;;;;;23.69;45.11;94209.69;5308545;26;9094;-62
2024/04/20 08:02:34;;;;;;;;;;;;;;;23.38;45.80;94205.25;5239930;27;9104;-61
2024/04/20 08:05:00;;;;;;;;;;;;;;;23.21;46.14;94209.97;5219246;27;7242;-60
2024/04/20 08:07:51;;;;;;;;;;;;;;;23.12;46.64;94218.44;5280974;26;7031;-60
2024/04/20 08:10:29;;;;;;;;;;;;;;;23.02;47.05;94223.44;5295632;26;7211;-61
2024/04/20 08:13:04;;;;;;;;;;;;;;;22.98;47.43;94224.94;5307869;26;9076;-60
2024/04/20 08:15:34;;;;;;;;;;;;;;;22.91;47.23;94223.44;5338235;26;8616;-60
2024/04/20 08:18:37;;;;;;;;;;;;;;;22.91;47.55;94233.63;5344420;26;7190;-60
2024/04/20 08:21:29;;;;;;;;;;;;;;;22.92;48.27;94235.16;5312425;26;8624;-60
2024/04/20 08:24:05;;;;;;;;;;;;;;;22.89;47.73;94236.88;5305723;26;9085;-59
2024/04/20 08:26:41;;;;;;;;;;;;;;;22.90;47.82;94240.38;5377857;26;9033;-59
2024/04/20 08:29:18;;;;;;;;;;;;;;;22.90;47.99;94241.13;5312072;26;9640;-60
2024/04/20 08:32:00;;;;;;;;;;;;;;;22.79;47.82;94230.16;5347020;26;9396;-60
2024/04/20 08:35:17;;;;;;;;;;;;;;;22.89;47.80;94250.59;5309298;26;9088;-57
2024/04/20 08:37:46;;;;;;;;;;;;;;;22.90;48.14;94257.56;5248801;26;9560;-57
2024/04/20 08:40:15;;;;;;;;;;;;;;;22.90;47.99;94256.84;5344748;26;7698;-56
2024/04/20 08:42:42;;;;;;;;;;;;;;;22.90;47.98;94257.56;5339263;26;9499;-56
2024/04/20 08:45:19;;;;;;;;;;;;;;;22.90;48.17;94257.56;5342204;26;9120;-57
2024/04/20 08:47:58;;;;;;;;;;;;;;;22.88;47.96;94262.81;5334084;26;9004;-57
2024/04/20 08:50:40;;;;;;;;;;;;;;;22.89;48.22;94272.53;5338972;26;9131;-56
2024/04/20 08:53:12;;;;;;;;;;;;;;;22.81;47.85;94260.56;5338617;26;7292;-56
2024/04/20 08:55:57;;;;;;;;;;;;;;;22.89;47.73;94277.25;5346694;26;8583;-56
2024/04/20 08:58:26;;;;;;;;;;;;;;;22.90;47.70;94279.50;5343669;26;8968;-56
2024/04/20 09:01:16;;;;;;;;;;;;;;;22.92;47.98;94287.25;5342254;26;9129;-57
2024/04/20 09:03:43;;;;;;;;;;;;;;;22.91;47.80;94291.22;5343969;26;9096;-56
2024/04/20 09:06:29;;;;;;;;;;;;;;;22.93;47.87;94294.97;5343537;26;7351;-57
2024/04/20 09:08:59;;;;;;;;;;;;;;;22.91;46.91;94299.47;5343049;26;8581;-57
2024/04/20 09:12:02;;;;;;;;;;;;;;;22.86;45.80;94300.94;5343684;26;9127;-57
2024/04/20 09:14:41;;;;;;;;;;;;;;;22.80;46.94;94302.16;5390634;26;8611;-56
2024/04/20 09:17:07;;;;;;;;;;;;;;;22.79;47.27;94304.19;5407186;26;9892;-57
2024/04/20 09:19:42;;;;;;;;;;;;;;;22.78;47.32;94308.16;5419186;26;10321;-57
2024/04/20 09:22:12;;;;;;;;;;;;;;;22.82;47.07;94313.38;5446484;26;7322;-57
2024/04/20 09:24:43;;;;;;;;;;;;;;;22.84;47.12;94319.13;5413618;26;9343;-57
2024/04/20 09:27:16;;;;;;;;;;;;;;;22.82;47.34;94313.38;5411412;26;8980;-57
2024/04/20 09:29:50;;;;;;;;;;;;;;;22.81;47.56;94315.41;5466768;26;9654;-57
2024/04/20 09:32:16;;;;;;;;;;;;;;;22.83;47.45;94312.16;5466099;26;9042;-57
2024/04/20 09:34:43;;;;;;;;;;;;;;;22.84;47.62;94317.13;5409934;26;9089;-57
2024/04/20 09:37:12;;;;;;;;;;;;;;;22.85;48.04;94321.41;5421749;26;7086;-57
2024/04/20 09:39:40;;;;;;;;;;;;;;;22.85;47.64;94320.63;5418694;26;9042;-57
2024/04/20 09:42:09;;;;;;;;;;;;;;;22.84;47.64;94319.88;5442306;26;9604;-57
2024/04/20 09:44:43;;;;;;;;;;;;;;;22.85;47.56;94326.88;5415987;26;8994;-61
2024/04/20 09:47:11;;;;;;;;;;;;;;;22.86;48.03;94322.16;5405419;26;8985;-61
2024/04/20 09:49:43;;;;;;;;;;;;;;;22.86;47.90;94322.88;5407968;26;9022;-61
2024/04/20 09:52:53;;;;;;;;;;;;;;;22.89;47.90;94324.66;5440471;26;9356;-61
2024/04/20 09:55:30;;;;;;;;;;;;;;;22.87;48.04;94321.66;5444420;26;9061;-61
2024/04/20 09:58:00;;;;;;;;;;;;;;;22.86;48.20;94327.63;5413037;26;9500;-61
2024/04/20 10:00:31;;;;;;;;;;;;;;;22.86;48.23;94322.88;5413451;26;9062;-61
2024/04/20 10:02:58;;;;;;;;;;;;;;;22.87;48.44;94323.63;5412180;26;9494;-61
2024/04/20 10:05:25;;;;;;;;;;;;;;;22.90;47.95;94323.38;5443055;26;7752;-61
2024/04/20 10:07:52;;;;;;;;;;;;;;;22.89;48.29;94312.91;5417162;26;9043;-61
2024/04/20 10:10:27;;;;;;;;;;;;;;;22.92;48.29;94320.91;5410259;26;9480;-61
2024/04/20 10:13:00;;;;;;;;;;;;;;;22.93;48.56;94311.44;5410467;26;9110;-61
2024/04/20 10:15:32;;;;;;;;;;;;;;;22.94;48.13;94314.94;5410500;26;9140;-61
2024/04/20 10:18:04;;;;;;;;;;;;;;;22.95;48.05;94313.69;5443476;26;9000;-61
2024/04/20 10:20:37;;;;;;;;;;;;;;;22.96;48.55;94312.44;5442465;26;8620;-61
2024/04/20 10:23:41;;;;;;;;;;;;;;;22.98;48.14;94321.69;5415178;26;9189;-61
2024/04/20 10:26:34;;;;;;;;;;;;;;;23.00;48.73;94316.44;5410550;26;9392;-61
2024/04/20 10:29:20;;;;;;;;;;;;;;;23.03;48.64;94309.22;5413766;26;9766;-61
2024/04/20 10:32:09;;;;;;;;;;;;;;;23.03;48.27;94304.47;5414252;26;8979;-61
2024/04/20 10:34:51;;;;;;;;;;;;;;;23.03;48.38;94315.44;5414296;26;7437;-61
2024/04/20 10:37:59;;;;;;;;;;;;;;;23.04;48.11;94311.47;5413897;26;7288;-61
2024/04/20 10:40:33;;;;;;;;;;;;;;;23.07;48.61;94312.47;5417242;26;9028;-61
2024/04/20 10:43:12;;;;;;;;;;;;;;;23.07;48.62;94301.50;5476743;26;9358;-61
2024/04/20 10:45:39;;;;;;;;;;;;;;;23.07;48.27;94310.47;5417188;26;8951;-63
2024/04/20 10:48:09;;;;;;;;;;;;;;;23.05;48.34;94310.19;5416289;26;9102;-71
2024/04/20 10:50:42;;;;;;;;;;;;;;;23.05;48.12;94304.72;5418631;26;9181;-65
2024/04/20 10:53:14;;;;;;;;;;;;;;;23.04;48.42;94308.72;5409840;26;7705;-62
2024/04/20 10:55:41;;;;;;;;;;;;;;;23.01;48.49;94306.22;5416578;26;9434;-61
2024/04/20 10:58:34;;;;;;;;;;;;;;;23.09;48.44;94307.25;5419038;26;7286;-60
2024/04/20 11:01:05;;;;;;;;;;;;;;;23.05;47.86;94298.50;5417071;26;9381;-61
2024/04/20 11:03:32;;;;;;;;;;;;;;;23.03;48.21;94304.47;5411614;26;9318;-61
2024/04/20 11:06:07;;;;;;;;;;;;;;;23.03;47.77;94307.22;5416898;26;8576;-61
2024/04/20 11:08:42;;;;;;;;;;;;;;;22.93;47.95;94286.75;5422687;26;9898;-61
2024/04/20 11:11:14;;;;;;;;;;;;;;;23.01;47.93;94298.72;5435505;26;9054;-61
2024/04/20 11:13:59;;;;;;;;;;;;;;;22.98;48.09;94291.50;5475623;26;9174;-61
2024/04/20 11:16:37;;;;;;;;;;;;;;;23.01;48.23;94292.53;5416406;26;9372;-61
2024/04/20 11:19:31;;;;;;;;;;;;;;;23.01;47.90;94296.00;5476318;26;7304;-61
2024/04/20 11:22:05;;;;;;;;;;;;;;;22.98;48.01;94296.25;5414765;26;8781;-61
2024/04/20 11:24:36;;;;;;;;;;;;;;;22.97;48.09;94300.97;5410965;26;9384;-61
2024/04/20 11:27:09;;;;;;;;;;;;;;;22.94;47.77;94301.22;5408734;26;9977;-61
2024/04/20 11:29:37;;;;;;;;;;;;;;;22.97;47.85;94311.19;5413098;26;8602;-61
2024/04/20 11:32:30;;;;;;;;;;;;;;;22.96;47.39;94321.44;5414596;26;9360;-61
2024/04/20 11:35:07;;;;;;;;;;;;;;;22.98;47.99;94307.97;5464648;26;7158;-61
2024/04/20 11:37:39;;;;;;;;;;;;;;;23.04;49.68;94311.47;5416131;26;7048;-61
2024/04/20 11:40:06;;;;;;;;;;;;;;;23.13;51.72;94326.94;5425648;26;8065;-61
2024/04/20 11:42:35;;;;;;;;;;;;;;;23.42;53.82;94332.00;5416186;26;9041;-60
2024/04/20 11:45:09;;;;;;;;;;;;;;;23.71;53.03;94333.50;5411137;26;9552;-60
2024/04/20 11:47:50;;;;;;;;;;;;;;;23.92;51.10;94321.75;5407840;26;9111;-61
2024/04/20 11:50:24;;;;;;;;;;;;;;;24.09;50.50;94324.53;5472761;26;7944;-59
2024/04/20 11:56:05;;;;;;;;;;;;;;;24.37;53.51;94332.72;5447457;26;9051;-63
2024/04/20 11:58:31;;;;;;;;;;;;;;;24.46;54.74;94330.44;5415165;26;7306;-63
2024/04/20 12:00:59;;;;;;;;;;;;;;;24.54;54.92;94325.16;5470703;26;9852;-62
2024/04/20 12:03:35;;;;;;;;;;;;;;;24.73;56.09;94330.84;5415479;26;9558;-65
2024/04/20 12:06:08;;;;;;;;;;;;;;;24.89;57.79;94327.28;5415198;26;8617;-61
2024/04/20 12:08:38;;;;;;;;;;;;;;;25.05;58.46;94327.22;5412932;26;8999;-60
2024/04/20 12:11:04;;;;;;;;;;;;;;;25.13;56.50;94327.41;5473702;26;9220;-61
2024/04/20 12:13:35;;;;;;;;;;;;;;;25.25;56.95;94340.59;5414749;26;9878;-64
2024/04/20 12:16:03;;;;;;;;;;;;;;;25.32;57.15;94353.81;5444616;26;7309;-61
2024/04/20 12:18:29;;;;;;;;;;;;;;;25.36;56.44;94372.81;5414124;26;9155;-61
2024/04/20 12:20:55;;;;;;;;;;;;;;;25.43;57.47;94380.56;5415840;26;9029;-61
2024/04/20 12:23:23;;;;;;;;;;;;;;;25.51;59.64;94381.53;5412977;26;9009;-61
2024/04/20 12:25:55;;;;;;;;;;;;;;;25.62;59.47;94386.94;5412066;26;9949;-61
2024/04/20 12:28:24;;;;;;;;;;;;;;;25.69;58.28;94391.91;5412597;26;9324;-61
2024/04/20 12:30:50;;;;;;;;;;;;;;;25.73;56.58;94389.63;5421400;26;9537;-61
2024/04/20 12:34:05;;;;;;;;;;;;;;;25.75;56.05;94378.13;5410001;26;9023;-67
2024/04/20 12:36:49;;;;;;;;;;;;;;;25.72;53.15;94384.66;5308779;26;9086;-61
2024/04/20 12:39:20;;;;;;;;;;;;;;;25.62;50.72;94397.97;5308332;26;9077;-64
2024/04/20 12:41:47;;;;;;;;;;;;;;;25.31;49.87;94398.38;5309394;26;7328;-62
2024/04/20 12:44:16;;;;;;;;;;;;;;;24.76;48.28;94402.13;5304539;26;9060;-60
2024/04/20 12:46:54;;;;;;;;;;;;;;;24.30;47.11;94410.94;5309178;26;9015;-60
2024/04/20 12:49:21;;;;;;;;;;;;;;;23.90;48.11;94412.16;5305674;26;9450;-62
2024/04/20 12:51:47;;;;;;;;;;;;;;;23.64;48.38;94406.13;5306911;26;9043;-61
2024/04/20 12:54:39;;;;;;;;;;;;;;;23.45;48.33;94404.38;5336350;26;9140;-61
2024/04/20 12:57:05;;;;;;;;;;;;;;;23.33;49.22;94411.06;5329969;26;9883;-61
2024/04/20 12:59:36;;;;;;;;;;;;;;;23.24;48.89;94410.03;5335224;26;9487;-61
2024/04/20 13:02:20;;;;;;;;;;;;;;;23.21;49.57;94410.25;5336361;26;7307;-60
2024/04/20 13:05:25;;;;;;;;;;;;;;;23.17;49.13;94401.53;5307583;26;9412;-61
2024/04/20 13:08:00;;;;;;;;;;;;;;;23.15;49.12;94409.50;5338800;26;9339;-61
2024/04/20 13:10:26;;;;;;;;;;;;;;;23.13;49.50;94399.03;5340676;26;9604;-62
2024/04/20 13:12:54;;;;;;;;;;;;;;;23.13;49.62;94396.28;5341501;26;9370;-62
2024/04/20 13:15:33;;;;;;;;;;;;;;;23.14;49.50;94400.50;5366831;26;9023;-64
2024/04/20 13:18:08;;;;;;;;;;;;;;;23.16;49.18;94405.53;5367082;26;9389;-65
2024/04/20 13:21:02;;;;;;;;;;;;;;;23.16;49.00;94400.75;5363248;26;8599;-64
2024/04/20 13:23:47;;;;;;;;;;;;;;;23.16;49.68;94402.78;5373188;26;9470;-64
2024/04/20 13:26:16;;;;;;;;;;;;;;;23.15;49.23;94401.28;5368317;26;7202;-64
2024/04/20 13:28:56;;;;;;;;;;;;;;;23.16;49.55;94409.00;5368263;26;8955;-65
2024/04/20 13:31:31;;;;;;;;;;;;;;;23.15;49.14;94413.00;5371039;26;9541;-64
2024/04/20 13:34:07;;;;;;;;;;;;;;;23.14;49.35;94408.75;5339584;26;9599;-67
2024/04/20 13:36:52;;;;;;;;;;;;;;;23.15;49.10;94410.25;5343314;26;9065;-68
2024/04/20 13:39:31;;;;;;;;;;;;;;;23.17;49.37;94424.22;5371656;26;9182;-67
2024/04/20 13:41:57;;;;;;;;;;;;;;;23.15;49.61;94426.72;5403796;26;7357;-66